sensor_id;sensor_type;location;lat;lon;timestamp;P1;durP1;ratioP1;P2;durP2;ratioP2
17866;SDS011;9059;49.934;8.650;2023-04-28T00:00:09;2.53;;;1.60;;
17866;SDS011;9059;49.934;8.650;2023-04-28T00:01:12;8.32;;;1.73;;
17866;SDS011;9059;49.934;8.650;2023-04-28T00:02:14;5.50;;;2.20;;
17866;SDS011;9059;49.934;8.650;2023-04-28T00:03:17;5.78;;;2.47;;
17866;SDS011;9059;49.934;8.650;2023-04-28T00:04:20;3.78;;;1.70;;
17866;SDS011;9059;49.934;8.650;2023-04-28T00:05:24;3.95;;;1.90;;
17866;SDS011;9059;49.934;8.650;2023-04-28T00:06:27;4.13;;;2.15;;
17866;SDS011;9059;49.934;8.650;2023-04-28T00:07:28;4.85;;;1.80;;
17866;SDS011;9059;49.934;8.650;2023-04-28T00:08:31;4.60;;;2.08;;
17866;SDS011;9059;49.934;8.650;2023-04-28T00:09:33;9.23;;;2.40;;
17866;SDS011;9059;49.934;8.650;2023-04-28T00:10:36;4.60;;;1.90;;
17866;SDS011;9059;49.934;8.650;2023-04-28T00:11:37;6.85;;;2.10;;
17866;SDS011;9059;49.934;8.650;2023-04-28T00:12:40;2.85;;;1.73;;
17866;SDS011;9059;49.934;8.650;2023-04-28T00:13:42;10.95;;;2.17;;
17866;SDS011;9059;49.934;8.650;2023-04-28T00:14:44;5.07;;;2.50;;
17866;SDS011;9059;49.934;8.650;2023-04-28T00:15:46;7.82;;;1.98;;
17866;SDS011;9059;49.934;8.650;2023-04-28T00:16:49;3.25;;;1.92;;
17866;SDS011;9059;49.934;8.650;2023-04-28T00:17:51;4.97;;;2.15;;
17866;SDS011;9059;49.934;8.650;2023-04-28T00:18:54;5.68;;;2.17;;
17866;SDS011;9059;49.934;8.650;2023-04-28T00:19:56;5.40;;;2.10;;
17866;SDS011;9059;49.934;8.650;2023-04-28T00:21:00;5.85;;;2.08;;
17866;SDS011;9059;49.934;8.650;2023-04-28T00:22:02;6.25;;;2.00;;
17866;SDS011;9059;49.934;8.650;2023-04-28T00:23:05;5.18;;;2.25;;
17866;SDS011;9059;49.934;8.650;2023-04-28T00:24:07;4.28;;;1.70;;
17866;SDS011;9059;49.934;8.650;2023-04-28T00:25:09;6.93;;;2.00;;
17866;SDS011;9059;49.934;8.650;2023-04-28T00:26:11;3.50;;;1.80;;
17866;SDS011;9059;49.934;8.650;2023-04-28T00:27:14;3.47;;;1.85;;
17866;SDS011;9059;49.934;8.650;2023-04-28T00:28:16;4.35;;;1.88;;
17866;SDS011;9059;49.934;8.650;2023-04-28T00:29:34;3.67;;;1.98;;
17866;SDS011;9059;49.934;8.650;2023-04-28T00:30:37;5.57;;;2.08;;
17866;SDS011;9059;49.934;8.650;2023-04-28T00:31:39;4.65;;;2.10;;
17866;SDS011;9059;49.934;8.650;2023-04-28T00:32:41;3.53;;;2.00;;
17866;SDS011;9059;49.934;8.650;2023-04-28T00:33:44;2.95;;;1.98;;
17866;SDS011;9059;49.934;8.650;2023-04-28T00:34:46;5.15;;;1.98;;
17866;SDS011;9059;49.934;8.650;2023-04-28T00:35:48;6.82;;;1.80;;
17866;SDS011;9059;49.934;8.650;2023-04-28T00:36:51;3.42;;;1.90;;
17866;SDS011;9059;49.934;8.650;2023-04-28T00:37:54;3.83;;;1.88;;
17866;SDS011;9059;49.934;8.650;2023-04-28T00:38:56;2.88;;;1.77;;
17866;SDS011;9059;49.934;8.650;2023-04-28T00:39:59;5.10;;;1.92;;
17866;SDS011;9059;49.934;8.650;2023-04-28T00:41:01;3.78;;;1.80;;
17866;SDS011;9059;49.934;8.650;2023-04-28T00:42:03;6.13;;;1.80;;
17866;SDS011;9059;49.934;8.650;2023-04-28T00:43:05;3.10;;;1.67;;
17866;SDS011;9059;49.934;8.650;2023-04-28T00:44:08;4.63;;;1.88;;
17866;SDS011;9059;49.934;8.650;2023-04-28T00:45:10;5.93;;;2.10;;
17866;SDS011;9059;49.934;8.650;2023-04-28T00:46:16;3.38;;;1.98;;
17866;SDS011;9059;49.934;8.650;2023-04-28T00:47:21;7.07;;;1.98;;
17866;SDS011;9059;49.934;8.650;2023-04-28T00:48:24;6.22;;;2.45;;
17866;SDS011;9059;49.934;8.650;2023-04-28T00:49:29;3.92;;;1.67;;
17866;SDS011;9059;49.934;8.650;2023-04-28T00:50:32;2.95;;;1.75;;
17866;SDS011;9059;49.934;8.650;2023-04-28T00:51:34;5.28;;;2.00;;
17866;SDS011;9059;49.934;8.650;2023-04-28T00:52:38;5.75;;;1.75;;
17866;SDS011;9059;49.934;8.650;2023-04-28T00:53:39;5.20;;;2.05;;
17866;SDS011;9059;49.934;8.650;2023-04-28T00:54:42;5.05;;;2.20;;
17866;SDS011;9059;49.934;8.650;2023-04-28T00:55:44;4.18;;;1.90;;
17866;SDS011;9059;49.934;8.650;2023-04-28T00:56:48;6.60;;;1.92;;
17866;SDS011;9059;49.934;8.650;2023-04-28T00:57:50;3.33;;;1.95;;
17866;SDS011;9059;49.934;8.650;2023-04-28T00:58:53;2.95;;;1.95;;
17866;SDS011;9059;49.934;8.650;2023-04-28T00:59:54;4.05;;;2.03;;
17866;SDS011;9059;49.934;8.650;2023-04-28T01:01:00;2.63;;;1.75;;
17866;SDS011;9059;49.934;8.650;2023-04-28T01:02:03;4.88;;;1.98;;
17866;SDS011;9059;49.934;8.650;2023-04-28T01:03:07;3.33;;;1.70;;
17866;SDS011;9059;49.934;8.650;2023-04-28T01:04:09;4.63;;;2.22;;
17866;SDS011;9059;49.934;8.650;2023-04-28T01:05:13;5.82;;;1.90;;
17866;SDS011;9059;49.934;8.650;2023-04-28T01:06:15;5.10;;;2.17;;
17866;SDS011;9059;49.934;8.650;2023-04-28T01:07:18;5.78;;;2.10;;
17866;SDS011;9059;49.934;8.650;2023-04-28T01:08:23;7.57;;;1.88;;
17866;SDS011;9059;49.934;8.650;2023-04-28T01:09:26;6.68;;;2.10;;
17866;SDS011;9059;49.934;8.650;2023-04-28T01:10:27;3.90;;;2.30;;
17866;SDS011;9059;49.934;8.650;2023-04-28T01:11:30;3.75;;;2.17;;
17866;SDS011;9059;49.934;8.650;2023-04-28T01:12:32;4.30;;;1.50;;
17866;SDS011;9059;49.934;8.650;2023-04-28T01:13:34;3.47;;;2.00;;
17866;SDS011;9059;49.934;8.650;2023-04-28T01:14:36;4.32;;;1.95;;
17866;SDS011;9059;49.934;8.650;2023-04-28T01:15:39;4.95;;;2.10;;
17866;SDS011;9059;49.934;8.650;2023-04-28T01:16:41;4.28;;;1.95;;
17866;SDS011;9059;49.934;8.650;2023-04-28T01:17:44;5.65;;;2.20;;
17866;SDS011;9059;49.934;8.650;2023-04-28T01:18:46;3.42;;;1.70;;
17866;SDS011;9059;49.934;8.650;2023-04-28T01:19:49;5.55;;;1.80;;
17866;SDS011;9059;49.934;8.650;2023-04-28T01:20:53;6.25;;;2.10;;
17866;SDS011;9059;49.934;8.650;2023-04-28T01:21:57;2.92;;;2.15;;
17866;SDS011;9059;49.934;8.650;2023-04-28T01:22:59;5.47;;;2.30;;
17866;SDS011;9059;49.934;8.650;2023-04-28T01:24:03;5.45;;;2.00;;
17866;SDS011;9059;49.934;8.650;2023-04-28T01:25:06;7.85;;;1.85;;
17866;SDS011;9059;49.934;8.650;2023-04-28T01:26:09;6.60;;;1.88;;
17866;SDS011;9059;49.934;8.650;2023-04-28T01:27:11;3.40;;;1.65;;
17866;SDS011;9059;49.934;8.650;2023-04-28T01:28:14;5.68;;;2.10;;
17866;SDS011;9059;49.934;8.650;2023-04-28T01:29:16;5.80;;;2.15;;
17866;SDS011;9059;49.934;8.650;2023-04-28T01:30:19;4.10;;;1.77;;
17866;SDS011;9059;49.934;8.650;2023-04-28T01:31:21;4.80;;;1.85;;
17866;SDS011;9059;49.934;8.650;2023-04-28T01:32:24;4.18;;;2.00;;
17866;SDS011;9059;49.934;8.650;2023-04-28T01:33:25;3.70;;;2.00;;
17866;SDS011;9059;49.934;8.650;2023-04-28T01:34:28;4.07;;;1.88;;
17866;SDS011;9059;49.934;8.650;2023-04-28T01:35:30;3.05;;;1.70;;
17866;SDS011;9059;49.934;8.650;2023-04-28T01:36:32;3.55;;;1.92;;
17866;SDS011;9059;49.934;8.650;2023-04-28T01:37:37;6.05;;;2.25;;
17866;SDS011;9059;49.934;8.650;2023-04-28T01:38:40;4.68;;;1.95;;
17866;SDS011;9059;49.934;8.650;2023-04-28T01:39:43;3.22;;;1.95;;
17866;SDS011;9059;49.934;8.650;2023-04-28T01:40:46;3.25;;;1.80;;
17866;SDS011;9059;49.934;8.650;2023-04-28T01:41:48;3.45;;;1.90;;
17866;SDS011;9059;49.934;8.650;2023-04-28T01:42:50;5.93;;;1.98;;
17866;SDS011;9059;49.934;8.650;2023-04-28T01:43:52;5.80;;;1.83;;
17866;SDS011;9059;49.934;8.650;2023-04-28T01:44:55;3.15;;;1.95;;
17866;SDS011;9059;49.934;8.650;2023-04-28T01:45:56;5.13;;;1.55;;
17866;SDS011;9059;49.934;8.650;2023-04-28T01:46:59;3.55;;;1.73;;
17866;SDS011;9059;49.934;8.650;2023-04-28T01:48:01;4.43;;;2.08;;
17866;SDS011;9059;49.934;8.650;2023-04-28T01:49:04;7.78;;;1.70;;
17866;SDS011;9059;49.934;8.650;2023-04-28T01:50:06;5.25;;;1.95;;
17866;SDS011;9059;49.934;8.650;2023-04-28T01:51:09;4.82;;;1.90;;
17866;SDS011;9059;49.934;8.650;2023-04-28T01:52:11;5.85;;;2.00;;
17866;SDS011;9059;49.934;8.650;2023-04-28T01:53:13;3.17;;;1.70;;
17866;SDS011;9059;49.934;8.650;2023-04-28T01:54:15;5.00;;;1.80;;
17866;SDS011;9059;49.934;8.650;2023-04-28T01:55:20;3.35;;;1.63;;
17866;SDS011;9059;49.934;8.650;2023-04-28T01:56:21;5.20;;;1.75;;
17866;SDS011;9059;49.934;8.650;2023-04-28T01:57:24;3.95;;;1.80;;
17866;SDS011;9059;49.934;8.650;2023-04-28T01:58:26;7.72;;;1.88;;
17866;SDS011;9059;49.934;8.650;2023-04-28T01:59:29;3.92;;;1.92;;
17866;SDS011;9059;49.934;8.650;2023-04-28T02:00:30;6.32;;;1.80;;
17866;SDS011;9059;49.934;8.650;2023-04-28T02:01:33;7.63;;;1.90;;
17866;SDS011;9059;49.934;8.650;2023-04-28T02:02:35;9.07;;;2.00;;
17866;SDS011;9059;49.934;8.650;2023-04-28T02:03:38;4.93;;;1.95;;
17866;SDS011;9059;49.934;8.650;2023-04-28T02:04:40;4.00;;;1.90;;
17866;SDS011;9059;49.934;8.650;2023-04-28T02:05:43;4.70;;;1.70;;
17866;SDS011;9059;49.934;8.650;2023-04-28T02:06:44;3.53;;;1.98;;
17866;SDS011;9059;49.934;8.650;2023-04-28T02:07:47;3.97;;;1.80;;
17866;SDS011;9059;49.934;8.650;2023-04-28T02:08:49;4.80;;;2.05;;
17866;SDS011;9059;49.934;8.650;2023-04-28T02:09:52;4.80;;;2.20;;
17866;SDS011;9059;49.934;8.650;2023-04-28T02:10:55;2.97;;;1.75;;
17866;SDS011;9059;49.934;8.650;2023-04-28T02:11:58;5.30;;;2.30;;
17866;SDS011;9059;49.934;8.650;2023-04-28T02:13:00;5.97;;;2.10;;
17866;SDS011;9059;49.934;8.650;2023-04-28T02:14:03;4.20;;;2.10;;
17866;SDS011;9059;49.934;8.650;2023-04-28T02:15:05;3.53;;;2.20;;
17866;SDS011;9059;49.934;8.650;2023-04-28T02:16:09;6.28;;;2.40;;
17866;SDS011;9059;49.934;8.650;2023-04-28T02:17:11;4.25;;;1.70;;
17866;SDS011;9059;49.934;8.650;2023-04-28T02:18:13;3.15;;;1.70;;
17866;SDS011;9059;49.934;8.650;2023-04-28T02:19:15;5.63;;;1.67;;
17866;SDS011;9059;49.934;8.650;2023-04-28T02:20:18;5.85;;;2.35;;
17866;SDS011;9059;49.934;8.650;2023-04-28T02:21:20;4.35;;;1.80;;
17866;SDS011;9059;49.934;8.650;2023-04-28T02:22:23;4.80;;;2.17;;
17866;SDS011;9059;49.934;8.650;2023-04-28T02:23:24;4.22;;;2.03;;
17866;SDS011;9059;49.934;8.650;2023-04-28T02:24:27;3.22;;;2.00;;
17866;SDS011;9059;49.934;8.650;2023-04-28T02:25:29;5.25;;;2.13;;
17866;SDS011;9059;49.934;8.650;2023-04-28T02:26:33;3.90;;;2.08;;
17866;SDS011;9059;49.934;8.650;2023-04-28T02:27:35;4.30;;;1.95;;
17866;SDS011;9059;49.934;8.650;2023-04-28T02:28:38;3.50;;;1.80;;
17866;SDS011;9059;49.934;8.650;2023-04-28T02:29:40;3.97;;;2.17;;
17866;SDS011;9059;49.934;8.650;2023-04-28T02:30:43;4.28;;;2.25;;
17866;SDS011;9059;49.934;8.650;2023-04-28T02:31:44;4.88;;;2.00;;
17866;SDS011;9059;49.934;8.650;2023-04-28T02:32:47;4.85;;;2.03;;
17866;SDS011;9059;49.934;8.650;2023-04-28T02:33:49;9.68;;;2.13;;
17866;SDS011;9059;49.934;8.650;2023-04-28T02:34:52;5.57;;;2.00;;
17866;SDS011;9059;49.934;8.650;2023-04-28T02:35:57;8.85;;;2.17;;
17866;SDS011;9059;49.934;8.650;2023-04-28T02:37:00;4.47;;;2.17;;
17866;SDS011;9059;49.934;8.650;2023-04-28T02:38:02;5.25;;;2.20;;
17866;SDS011;9059;49.934;8.650;2023-04-28T02:39:05;3.67;;;1.85;;
17866;SDS011;9059;49.934;8.650;2023-04-28T02:40:07;6.95;;;1.98;;
17866;SDS011;9059;49.934;8.650;2023-04-28T02:41:10;4.95;;;1.83;;
17866;SDS011;9059;49.934;8.650;2023-04-28T02:42:13;3.90;;;1.67;;
17866;SDS011;9059;49.934;8.650;2023-04-28T02:43:16;5.35;;;1.90;;
17866;SDS011;9059;49.934;8.650;2023-04-28T02:44:19;4.65;;;1.70;;
17866;SDS011;9059;49.934;8.650;2023-04-28T02:45:21;4.70;;;2.10;;
17866;SDS011;9059;49.934;8.650;2023-04-28T02:46:23;3.17;;;1.58;;
17866;SDS011;9059;49.934;8.650;2023-04-28T02:47:26;2.45;;;1.70;;
17866;SDS011;9059;49.934;8.650;2023-04-28T02:48:28;4.18;;;1.98;;
17866;SDS011;9059;49.934;8.650;2023-04-28T02:49:31;5.72;;;2.22;;
17866;SDS011;9059;49.934;8.650;2023-04-28T02:50:33;3.20;;;1.60;;
17866;SDS011;9059;49.934;8.650;2023-04-28T02:51:36;7.00;;;1.92;;
17866;SDS011;9059;49.934;8.650;2023-04-28T02:52:37;5.03;;;1.95;;
17866;SDS011;9059;49.934;8.650;2023-04-28T02:53:40;3.38;;;1.70;;
17866;SDS011;9059;49.934;8.650;2023-04-28T02:54:42;3.58;;;1.77;;
17866;SDS011;9059;49.934;8.650;2023-04-28T02:55:49;4.18;;;1.98;;
17866;SDS011;9059;49.934;8.650;2023-04-28T02:56:50;2.60;;;1.70;;
17866;SDS011;9059;49.934;8.650;2023-04-28T02:57:54;2.35;;;1.70;;
17866;SDS011;9059;49.934;8.650;2023-04-28T02:58:56;2.65;;;1.90;;
17866;SDS011;9059;49.934;8.650;2023-04-28T02:59:59;3.97;;;1.92;;
17866;SDS011;9059;49.934;8.650;2023-04-28T03:01:00;3.47;;;1.88;;
17866;SDS011;9059;49.934;8.650;2023-04-28T03:02:03;4.13;;;1.80;;
17866;SDS011;9059;49.934;8.650;2023-04-28T03:03:05;4.82;;;2.13;;
17866;SDS011;9059;49.934;8.650;2023-04-28T03:04:08;5.72;;;2.28;;
17866;SDS011;9059;49.934;8.650;2023-04-28T03:05:10;4.95;;;2.20;;
17866;SDS011;9059;49.934;8.650;2023-04-28T03:06:13;8.38;;;1.98;;
17866;SDS011;9059;49.934;8.650;2023-04-28T03:07:15;3.15;;;1.92;;
17866;SDS011;9059;49.934;8.650;2023-04-28T03:08:17;4.45;;;2.45;;
17866;SDS011;9059;49.934;8.650;2023-04-28T03:09:21;4.57;;;2.17;;
17866;SDS011;9059;49.934;8.650;2023-04-28T03:10:23;3.08;;;2.13;;
17866;SDS011;9059;49.934;8.650;2023-04-28T03:11:25;5.18;;;1.90;;
17866;SDS011;9059;49.934;8.650;2023-04-28T03:12:28;2.95;;;1.95;;
17866;SDS011;9059;49.934;8.650;2023-04-28T03:13:31;4.88;;;2.20;;
17866;SDS011;9059;49.934;8.650;2023-04-28T03:14:34;9.27;;;2.10;;
17866;SDS011;9059;49.934;8.650;2023-04-28T03:15:35;6.55;;;2.60;;
17866;SDS011;9059;49.934;8.650;2023-04-28T03:16:38;5.32;;;2.25;;
17866;SDS011;9059;49.934;8.650;2023-04-28T03:17:40;3.13;;;1.98;;
17866;SDS011;9059;49.934;8.650;2023-04-28T03:18:43;3.53;;;2.00;;
17866;SDS011;9059;49.934;8.650;2023-04-28T03:19:45;3.67;;;1.95;;
17866;SDS011;9059;49.934;8.650;2023-04-28T03:20:48;5.78;;;2.80;;
17866;SDS011;9059;49.934;8.650;2023-04-28T03:21:49;7.95;;;2.30;;
17866;SDS011;9059;49.934;8.650;2023-04-28T03:22:52;3.85;;;2.40;;
17866;SDS011;9059;49.934;8.650;2023-04-28T03:23:54;5.78;;;2.75;;
17866;SDS011;9059;49.934;8.650;2023-04-28T03:24:57;7.75;;;2.28;;
17866;SDS011;9059;49.934;8.650;2023-04-28T03:25:58;7.35;;;2.20;;
17866;SDS011;9059;49.934;8.650;2023-04-28T03:27:01;3.90;;;1.88;;
17866;SDS011;9059;49.934;8.650;2023-04-28T03:28:04;3.92;;;1.95;;
17866;SDS011;9059;49.934;8.650;2023-04-28T03:29:08;3.58;;;2.28;;
17866;SDS011;9059;49.934;8.650;2023-04-28T03:30:10;5.20;;;2.30;;
17866;SDS011;9059;49.934;8.650;2023-04-28T03:31:13;8.75;;;2.60;;
17866;SDS011;9059;49.934;8.650;2023-04-28T03:32:14;4.43;;;2.15;;
17866;SDS011;9059;49.934;8.650;2023-04-28T03:33:17;3.85;;;2.15;;
17866;SDS011;9059;49.934;8.650;2023-04-28T03:34:19;4.90;;;2.03;;
17866;SDS011;9059;49.934;8.650;2023-04-28T03:35:22;9.80;;;2.50;;
17866;SDS011;9059;49.934;8.650;2023-04-28T03:36:24;6.47;;;2.20;;
17866;SDS011;9059;49.934;8.650;2023-04-28T03:37:27;7.20;;;2.33;;
17866;SDS011;9059;49.934;8.650;2023-04-28T03:38:29;9.57;;;2.53;;
17866;SDS011;9059;49.934;8.650;2023-04-28T03:39:32;4.38;;;2.40;;
17866;SDS011;9059;49.934;8.650;2023-04-28T03:40:34;3.97;;;2.30;;
17866;SDS011;9059;49.934;8.650;2023-04-28T03:41:37;3.60;;;2.33;;
17866;SDS011;9059;49.934;8.650;2023-04-28T03:42:38;4.82;;;2.40;;
17866;SDS011;9059;49.934;8.650;2023-04-28T03:43:41;5.22;;;2.38;;
17866;SDS011;9059;49.934;8.650;2023-04-28T03:44:44;6.55;;;2.92;;
17866;SDS011;9059;49.934;8.650;2023-04-28T03:45:47;6.38;;;2.45;;
17866;SDS011;9059;49.934;8.650;2023-04-28T03:46:49;5.55;;;2.40;;
17866;SDS011;9059;49.934;8.650;2023-04-28T03:47:52;6.10;;;2.50;;
17866;SDS011;9059;49.934;8.650;2023-04-28T03:48:54;7.63;;;2.25;;
17866;SDS011;9059;49.934;8.650;2023-04-28T03:49:57;4.22;;;2.42;;
17866;SDS011;9059;49.934;8.650;2023-04-28T03:50:59;7.50;;;2.40;;
17866;SDS011;9059;49.934;8.650;2023-04-28T03:52:02;4.45;;;2.22;;
17866;SDS011;9059;49.934;8.650;2023-04-28T03:53:04;6.57;;;2.65;;
17866;SDS011;9059;49.934;8.650;2023-04-28T03:54:07;3.72;;;2.22;;
17866;SDS011;9059;49.934;8.650;2023-04-28T03:55:09;3.50;;;2.17;;
17866;SDS011;9059;49.934;8.650;2023-04-28T03:56:11;4.28;;;2.60;;
17866;SDS011;9059;49.934;8.650;2023-04-28T03:57:13;4.45;;;2.20;;
17866;SDS011;9059;49.934;8.650;2023-04-28T03:58:16;4.13;;;1.98;;
17866;SDS011;9059;49.934;8.650;2023-04-28T03:59:18;4.70;;;2.20;;
17866;SDS011;9059;49.934;8.650;2023-04-28T04:00:22;3.78;;;2.25;;
17866;SDS011;9059;49.934;8.650;2023-04-28T04:01:24;5.47;;;2.20;;
17866;SDS011;9059;49.934;8.650;2023-04-28T04:02:28;3.88;;;2.20;;
17866;SDS011;9059;49.934;8.650;2023-04-28T04:03:30;6.45;;;2.45;;
17866;SDS011;9059;49.934;8.650;2023-04-28T04:04:33;5.72;;;2.45;;
17866;SDS011;9059;49.934;8.650;2023-04-28T04:05:35;7.75;;;2.60;;
17866;SDS011;9059;49.934;8.650;2023-04-28T04:06:38;6.07;;;2.58;;
17866;SDS011;9059;49.934;8.650;2023-04-28T04:07:40;4.47;;;2.45;;
17866;SDS011;9059;49.934;8.650;2023-04-28T04:08:42;4.55;;;2.38;;
17866;SDS011;9059;49.934;8.650;2023-04-28T04:09:44;4.60;;;2.05;;
17866;SDS011;9059;49.934;8.650;2023-04-28T04:10:47;4.70;;;2.17;;
17866;SDS011;9059;49.934;8.650;2023-04-28T04:11:49;4.75;;;2.13;;
17866;SDS011;9059;49.934;8.650;2023-04-28T04:12:51;7.00;;;2.42;;
17866;SDS011;9059;49.934;8.650;2023-04-28T04:13:53;5.93;;;2.42;;
17866;SDS011;9059;49.934;8.650;2023-04-28T04:14:56;6.93;;;2.08;;
17866;SDS011;9059;49.934;8.650;2023-04-28T04:15:59;5.40;;;2.40;;
17866;SDS011;9059;49.934;8.650;2023-04-28T04:17:02;5.25;;;2.40;;
17866;SDS011;9059;49.934;8.650;2023-04-28T04:18:04;5.00;;;2.50;;
17866;SDS011;9059;49.934;8.650;2023-04-28T04:19:07;6.00;;;2.60;;
17866;SDS011;9059;49.934;8.650;2023-04-28T04:20:09;3.63;;;2.13;;
17866;SDS011;9059;49.934;8.650;2023-04-28T04:21:12;4.03;;;2.25;;
17866;SDS011;9059;49.934;8.650;2023-04-28T04:22:14;4.30;;;2.47;;
17866;SDS011;9059;49.934;8.650;2023-04-28T04:23:16;3.40;;;2.20;;
17866;SDS011;9059;49.934;8.650;2023-04-28T04:24:18;4.97;;;2.38;;
17866;SDS011;9059;49.934;8.650;2023-04-28T04:25:21;3.65;;;2.60;;
17866;SDS011;9059;49.934;8.650;2023-04-28T04:26:23;4.07;;;2.25;;
17866;SDS011;9059;49.934;8.650;2023-04-28T04:27:26;5.70;;;2.28;;
17866;SDS011;9059;49.934;8.650;2023-04-28T04:28:28;6.38;;;2.38;;
17866;SDS011;9059;49.934;8.650;2023-04-28T04:29:31;5.90;;;2.40;;
17866;SDS011;9059;49.934;8.650;2023-04-28T04:30:32;5.75;;;2.22;;
17866;SDS011;9059;49.934;8.650;2023-04-28T04:31:37;3.03;;;2.05;;
17866;SDS011;9059;49.934;8.650;2023-04-28T04:32:39;4.10;;;2.33;;
17866;SDS011;9059;49.934;8.650;2023-04-28T04:33:41;5.80;;;2.35;;
17866;SDS011;9059;49.934;8.650;2023-04-28T04:34:43;4.32;;;2.30;;
17866;SDS011;9059;49.934;8.650;2023-04-28T04:35:46;6.28;;;2.28;;
17866;SDS011;9059;49.934;8.650;2023-04-28T04:36:48;4.15;;;2.03;;
17866;SDS011;9059;49.934;8.650;2023-04-28T04:37:50;4.25;;;2.38;;
17866;SDS011;9059;49.934;8.650;2023-04-28T04:38:52;11.48;;;2.42;;
17866;SDS011;9059;49.934;8.650;2023-04-28T04:39:55;5.82;;;2.67;;
17866;SDS011;9059;49.934;8.650;2023-04-28T04:40:57;8.15;;;2.38;;
17866;SDS011;9059;49.934;8.650;2023-04-28T04:42:00;5.03;;;2.25;;
17866;SDS011;9059;49.934;8.650;2023-04-28T04:43:23;3.47;;;2.22;;
17866;SDS011;9059;49.934;8.650;2023-04-28T04:44:24;3.75;;;2.38;;
17866;SDS011;9059;49.934;8.650;2023-04-28T04:45:27;3.55;;;2.40;;
17866;SDS011;9059;49.934;8.650;2023-04-28T04:46:29;5.57;;;2.50;;
17866;SDS011;9059;49.934;8.650;2023-04-28T04:47:33;6.45;;;2.72;;
17866;SDS011;9059;49.934;8.650;2023-04-28T04:48:35;4.88;;;2.33;;
17866;SDS011;9059;49.934;8.650;2023-04-28T04:49:38;3.97;;;2.20;;
17866;SDS011;9059;49.934;8.650;2023-04-28T04:50:40;5.25;;;2.55;;
17866;SDS011;9059;49.934;8.650;2023-04-28T04:51:43;4.25;;;2.50;;
17866;SDS011;9059;49.934;8.650;2023-04-28T04:52:45;4.60;;;2.15;;
17866;SDS011;9059;49.934;8.650;2023-04-28T04:53:48;5.40;;;2.63;;
17866;SDS011;9059;49.934;8.650;2023-04-28T04:54:50;3.25;;;2.42;;
17866;SDS011;9059;49.934;8.650;2023-04-28T04:55:52;6.13;;;2.15;;
17866;SDS011;9059;49.934;8.650;2023-04-28T04:56:54;3.35;;;2.10;;
17866;SDS011;9059;49.934;8.650;2023-04-28T04:57:57;4.25;;;2.38;;
17866;SDS011;9059;49.934;8.650;2023-04-28T04:58:59;5.25;;;2.00;;
17866;SDS011;9059;49.934;8.650;2023-04-28T05:00:02;4.53;;;2.30;;
17866;SDS011;9059;49.934;8.650;2023-04-28T05:01:04;3.10;;;2.13;;
17866;SDS011;9059;49.934;8.650;2023-04-28T05:02:07;6.65;;;2.88;;
17866;SDS011;9059;49.934;8.650;2023-04-28T05:03:11;7.32;;;2.97;;
17866;SDS011;9059;49.934;8.650;2023-04-28T05:04:14;6.82;;;3.20;;
17866;SDS011;9059;49.934;8.650;2023-04-28T05:05:16;5.43;;;3.15;;
17866;SDS011;9059;49.934;8.650;2023-04-28T05:06:23;5.85;;;3.38;;
17866;SDS011;9059;49.934;8.650;2023-04-28T05:07:24;6.40;;;3.63;;
17866;SDS011;9059;49.934;8.650;2023-04-28T05:08:27;4.90;;;3.47;;
17866;SDS011;9059;49.934;8.650;2023-04-28T05:09:29;5.82;;;3.70;;
17866;SDS011;9059;49.934;8.650;2023-04-28T05:10:33;6.97;;;3.30;;
17866;SDS011;9059;49.934;8.650;2023-04-28T05:11:35;7.40;;;3.42;;
17866;SDS011;9059;49.934;8.650;2023-04-28T05:12:37;4.28;;;2.60;;
17866;SDS011;9059;49.934;8.650;2023-04-28T05:13:42;5.07;;;2.65;;
17866;SDS011;9059;49.934;8.650;2023-04-28T05:14:44;4.93;;;2.45;;
17866;SDS011;9059;49.934;8.650;2023-04-28T05:15:46;4.35;;;2.15;;
17866;SDS011;9059;49.934;8.650;2023-04-28T05:16:49;4.18;;;2.22;;
17866;SDS011;9059;49.934;8.650;2023-04-28T05:17:51;5.38;;;2.58;;
17866;SDS011;9059;49.934;8.650;2023-04-28T05:18:55;8.10;;;2.67;;
17866;SDS011;9059;49.934;8.650;2023-04-28T05:19:57;4.82;;;2.17;;
17866;SDS011;9059;49.934;8.650;2023-04-28T05:21:00;5.53;;;2.30;;
17866;SDS011;9059;49.934;8.650;2023-04-28T05:22:02;3.85;;;2.40;;
17866;SDS011;9059;49.934;8.650;2023-04-28T05:23:04;4.85;;;2.60;;
17866;SDS011;9059;49.934;8.650;2023-04-28T05:24:07;3.35;;;2.45;;
17866;SDS011;9059;49.934;8.650;2023-04-28T05:25:09;4.25;;;2.20;;
17866;SDS011;9059;49.934;8.650;2023-04-28T05:26:11;5.75;;;2.28;;
17866;SDS011;9059;49.934;8.650;2023-04-28T05:27:14;5.00;;;2.08;;
17866;SDS011;9059;49.934;8.650;2023-04-28T05:28:16;4.00;;;2.30;;
17866;SDS011;9059;49.934;8.650;2023-04-28T05:29:22;4.18;;;2.30;;
17866;SDS011;9059;49.934;8.650;2023-04-28T05:30:23;5.30;;;2.00;;
17866;SDS011;9059;49.934;8.650;2023-04-28T05:31:26;3.75;;;2.05;;
17866;SDS011;9059;49.934;8.650;2023-04-28T05:32:28;5.82;;;2.35;;
17866;SDS011;9059;49.934;8.650;2023-04-28T05:33:31;3.15;;;2.25;;
17866;SDS011;9059;49.934;8.650;2023-04-28T05:34:34;6.38;;;2.35;;
17866;SDS011;9059;49.934;8.650;2023-04-28T05:35:37;3.50;;;2.25;;
17866;SDS011;9059;49.934;8.650;2023-04-28T05:36:38;4.22;;;2.45;;
17866;SDS011;9059;49.934;8.650;2023-04-28T05:37:41;4.22;;;2.30;;
17866;SDS011;9059;49.934;8.650;2023-04-28T05:38:45;4.78;;;2.25;;
17866;SDS011;9059;49.934;8.650;2023-04-28T05:39:48;5.47;;;1.98;;
17866;SDS011;9059;49.934;8.650;2023-04-28T05:40:49;5.35;;;2.40;;
17866;SDS011;9059;49.934;8.650;2023-04-28T05:41:52;5.50;;;2.03;;
17866;SDS011;9059;49.934;8.650;2023-04-28T05:42:55;4.65;;;2.20;;
17866;SDS011;9059;49.934;8.650;2023-04-28T05:43:56;3.47;;;2.20;;
17866;SDS011;9059;49.934;8.650;2023-04-28T05:44:59;5.30;;;2.30;;
17866;SDS011;9059;49.934;8.650;2023-04-28T05:46:01;10.63;;;2.15;;
17866;SDS011;9059;49.934;8.650;2023-04-28T05:47:06;5.47;;;2.20;;
17866;SDS011;9059;49.934;8.650;2023-04-28T05:48:08;7.13;;;2.60;;
17866;SDS011;9059;49.934;8.650;2023-04-28T05:49:11;5.85;;;2.17;;
17866;SDS011;9059;49.934;8.650;2023-04-28T05:50:14;3.50;;;2.10;;
17866;SDS011;9059;49.934;8.650;2023-04-28T05:51:17;3.55;;;2.00;;
17866;SDS011;9059;49.934;8.650;2023-04-28T05:52:18;5.20;;;2.00;;
17866;SDS011;9059;49.934;8.650;2023-04-28T05:53:21;4.63;;;2.50;;
17866;SDS011;9059;49.934;8.650;2023-04-28T05:54:23;3.97;;;2.33;;
17866;SDS011;9059;49.934;8.650;2023-04-28T05:55:26;5.93;;;2.72;;
17866;SDS011;9059;49.934;8.650;2023-04-28T05:56:28;7.68;;;2.00;;
17866;SDS011;9059;49.934;8.650;2023-04-28T05:57:31;5.07;;;2.08;;
17866;SDS011;9059;49.934;8.650;2023-04-28T05:58:49;5.88;;;2.42;;
17866;SDS011;9059;49.934;8.650;2023-04-28T05:59:52;5.22;;;2.45;;
17866;SDS011;9059;49.934;8.650;2023-04-28T06:00:54;4.22;;;2.60;;
17866;SDS011;9059;49.934;8.650;2023-04-28T06:01:56;5.07;;;2.08;;
17866;SDS011;9059;49.934;8.650;2023-04-28T06:02:58;5.53;;;2.47;;
17866;SDS011;9059;49.934;8.650;2023-04-28T06:04:02;3.28;;;2.03;;
17866;SDS011;9059;49.934;8.650;2023-04-28T06:05:04;4.32;;;2.22;;
17866;SDS011;9059;49.934;8.650;2023-04-28T06:06:10;6.80;;;2.15;;
17866;SDS011;9059;49.934;8.650;2023-04-28T06:07:12;2.95;;;2.20;;
17866;SDS011;9059;49.934;8.650;2023-04-28T06:08:14;5.32;;;2.20;;
17866;SDS011;9059;49.934;8.650;2023-04-28T06:09:16;7.35;;;2.33;;
17866;SDS011;9059;49.934;8.650;2023-04-28T06:10:20;11.23;;;2.55;;
17866;SDS011;9059;49.934;8.650;2023-04-28T06:11:22;3.47;;;2.13;;
17866;SDS011;9059;49.934;8.650;2023-04-28T06:12:25;6.47;;;2.70;;
17866;SDS011;9059;49.934;8.650;2023-04-28T06:13:27;5.20;;;2.40;;
17866;SDS011;9059;49.934;8.650;2023-04-28T06:14:29;6.10;;;2.72;;
17866;SDS011;9059;49.934;8.650;2023-04-28T06:15:31;8.25;;;2.17;;
17866;SDS011;9059;49.934;8.650;2023-04-28T06:16:34;5.63;;;2.63;;
17866;SDS011;9059;49.934;8.650;2023-04-28T06:17:37;5.82;;;2.60;;
17866;SDS011;9059;49.934;8.650;2023-04-28T06:18:40;5.00;;;2.67;;
17866;SDS011;9059;49.934;8.650;2023-04-28T06:19:42;4.88;;;2.20;;
17866;SDS011;9059;49.934;8.650;2023-04-28T06:20:45;5.13;;;2.20;;
17866;SDS011;9059;49.934;8.650;2023-04-28T06:21:48;3.60;;;2.58;;
17866;SDS011;9059;49.934;8.650;2023-04-28T06:22:52;4.97;;;2.45;;